createdAt,value
2024-01-10T00:01:29.024Z,-7.72
2024-01-10T00:05:32.450Z,-7.71
2024-01-10T00:09:35.396Z,-7.70
2024-01-10T00:13:40.661Z,-7.73
2024-01-10T00:17:44.021Z,-7.73
2024-01-10T00:21:47.314Z,-7.75
2024-01-10T00:25:50.753Z,-7.73
2024-01-10T00:29:57.361Z,-7.74
2024-01-10T00:34:00.353Z,-7.72
2024-01-10T00:38:03.714Z,-7.74
2024-01-10T00:42:06.641Z,-7.75
2024-01-10T00:46:11.562Z,-7.79
2024-01-10T00:50:14.607Z,-7.82
2024-01-10T00:54:18.088Z,-7.86
2024-01-10T00:58:21.439Z,-7.96
2024-01-10T01:02:26.433Z,-8.01
2024-01-10T01:06:29.432Z,-8.06
2024-01-10T01:10:34.246Z,-8.10
2024-01-10T01:14:39.014Z,-8.14
2024-01-10T01:18:46.850Z,-8.23
2024-01-10T01:22:49.953Z,-8.29
2024-01-10T01:26:54.094Z,-8.31
2024-01-10T01:30:57.109Z,-8.29
2024-01-10T01:35:01.859Z,-8.26
2024-01-10T01:39:04.896Z,-8.28
2024-01-10T01:43:24.453Z,-8.34
2024-01-10T01:47:28.593Z,-8.45
2024-01-10T01:51:34.575Z,-8.45
2024-01-10T01:55:37.958Z,-8.45
2024-01-10T01:59:41.565Z,-8.47
2024-01-10T02:03:44.693Z,-8.51
2024-01-10T02:07:49.478Z,-8.54
2024-01-10T02:11:52.512Z,-8.49
2024-01-10T02:15:56.560Z,-8.48
2024-01-10T02:20:10.853Z,-8.48
2024-01-10T02:24:15.568Z,-8.48
2024-01-10T02:28:19.867Z,-8.44
2024-01-10T02:32:23.977Z,-8.39
2024-01-10T02:36:26.982Z,-8.40
2024-01-10T02:40:30.248Z,-8.40
2024-01-10T02:44:34.660Z,-8.38
2024-01-10T02:48:38.152Z,-8.38
2024-01-10T02:52:41.298Z,-8.38
2024-01-10T02:56:44.716Z,-8.40
2024-01-10T03:00:49.613Z,-8.39
2024-01-10T03:04:53.891Z,-8.40
2024-01-10T03:08:57.821Z,-8.44
2024-01-10T03:13:01.172Z,-8.48
2024-01-10T03:17:06.257Z,-8.50
2024-01-10T03:21:09.712Z,-8.52
2024-01-10T03:25:12.773Z,-8.56
2024-01-10T03:29:16.230Z,-8.58
2024-01-10T03:33:20.794Z,-8.61
2024-01-10T03:37:24.214Z,-8.66
2024-01-10T03:41:27.447Z,-8.72
2024-01-10T03:45:31.443Z,-8.78
2024-01-10T03:49:35.918Z,-8.81
2024-01-10T03:53:39.678Z,-8.81
2024-01-10T03:57:42.792Z,-8.83
2024-01-10T04:01:46.415Z,-8.85
2024-01-10T04:05:50.937Z,-8.88
2024-01-10T04:09:54.370Z,-8.91
2024-01-10T04:13:57.539Z,-8.93
2024-01-10T04:18:01.121Z,-8.97
2024-01-10T04:22:06.032Z,-8.99
2024-01-10T04:26:09.509Z,-9.00
2024-01-10T04:30:13.969Z,-8.99
2024-01-10T04:34:17.074Z,-8.97
2024-01-10T04:38:23.936Z,-8.98
2024-01-10T04:42:27.603Z,-8.98
2024-01-10T04:46:30.719Z,-8.97
2024-01-10T04:50:34.288Z,-8.96
2024-01-10T04:54:38.741Z,-8.97
2024-01-10T04:58:42.229Z,-8.97
2024-01-10T05:02:45.798Z,-8.99
2024-01-10T05:06:49.311Z,-8.97
2024-01-10T05:10:53.785Z,-8.98
2024-01-10T05:14:57.217Z,-9.00
2024-01-10T05:19:04.073Z,-9.03
2024-01-10T05:23:07.704Z,-9.06
2024-01-10T05:27:12.606Z,-9.09
2024-01-10T05:31:16.079Z,-9.09
2024-01-10T05:35:19.226Z,-9.09
2024-01-10T05:39:23.226Z,-9.12
2024-01-10T05:43:27.710Z,-9.12
2024-01-10T05:47:30.865Z,-9.14
2024-01-10T05:51:34.390Z,-9.13
2024-01-10T05:55:38.099Z,-9.13
2024-01-10T05:59:42.693Z,-9.14
2024-01-10T06:03:46.231Z,-9.16
2024-01-10T06:07:49.475Z,-9.18
2024-01-10T06:11:52.861Z,-9.22
2024-01-10T06:15:57.276Z,-9.25
2024-01-10T06:20:01.257Z,-9.28
2024-01-10T06:24:04.632Z,-9.28
2024-01-10T06:28:08.290Z,-9.29
2024-01-10T06:32:13.355Z,-9.29
2024-01-10T06:36:16.437Z,-9.30
2024-01-10T06:40:19.511Z,-9.32
2024-01-10T06:44:23.058Z,-9.33
2024-01-10T06:48:27.797Z,-9.34
2024-01-10T06:52:31.133Z,-9.33
2024-01-10T06:56:34.923Z,-9.31
2024-01-10T07:00:39.895Z,-9.29
2024-01-10T07:04:44.828Z,-9.29
2024-01-10T07:08:50.711Z,-9.27
2024-01-10T07:12:54.007Z,-9.25
2024-01-10T07:16:58.362Z,-9.24
2024-01-10T07:21:03.000Z,-9.22
2024-01-10T07:25:09.207Z,-9.21
2024-01-10T07:29:12.777Z,-9.20
2024-01-10T07:33:17.368Z,-9.18
2024-01-10T07:37:23.760Z,-9.16
2024-01-10T07:41:27.561Z,-9.13
2024-01-10T07:45:30.995Z,-9.12
2024-01-10T07:49:34.008Z,-9.05
2024-01-10T07:53:38.782Z,-9.00
2024-01-10T07:57:43.492Z,-8.95
2024-01-10T08:01:56.492Z,-8.90
2024-01-10T08:06:00.250Z,-8.84
2024-01-10T08:10:05.933Z,-8.82
2024-01-10T08:14:09.476Z,-8.77
2024-01-10T08:18:12.906Z,-8.72
2024-01-10T08:22:16.797Z,-8.67
2024-01-10T08:26:21.288Z,-8.61
2024-01-10T08:30:24.805Z,-8.53
2024-01-10T08:34:28.117Z,-8.50
2024-01-10T08:38:31.547Z,-8.44
2024-01-10T08:42:35.973Z,-8.38
2024-01-10T08:46:39.479Z,-8.29
2024-01-10T08:50:42.705Z,-8.21
2024-01-10T08:54:46.064Z,-8.12
2024-01-10T08:58:50.546Z,-8.03
2024-01-10T09:02:54.684Z,-7.91
2024-01-10T09:06:58.241Z,-7.82
2024-01-10T09:11:01.791Z,-7.70
2024-01-10T09:15:09.396Z,-7.67
2024-01-10T09:19:15.648Z,-7.57
2024-01-10T09:23:20.121Z,-7.49
2024-01-10T09:27:23.879Z,-7.41
2024-01-10T09:31:28.319Z,-7.28
2024-01-10T09:35:31.784Z,-7.17
2024-01-10T09:39:34.945Z,-7.07
2024-01-10T09:43:38.337Z,-6.97
2024-01-10T09:47:48.081Z,-6.83
2024-01-10T09:51:52.120Z,-6.71
2024-01-10T09:55:57.678Z,-6.61
2024-01-10T10:00:01.188Z,-6.48
2024-01-10T10:04:06.081Z,-6.38
2024-01-10T10:08:11.111Z,-6.25
2024-01-10T10:12:14.295Z,-6.19
2024-01-10T10:16:26.174Z,-6.03
2024-01-10T10:20:33.955Z,-5.98
2024-01-10T10:24:37.467Z,-5.86
2024-01-10T10:28:42.234Z,-5.70
2024-01-10T10:32:45.699Z,-5.51
2024-01-10T10:36:50.296Z,-5.32
2024-01-10T10:40:53.678Z,-5.18
2024-01-10T10:45:04.806Z,-5.03
2024-01-10T10:49:14.424Z,-4.77
2024-01-10T10:53:21.823Z,-4.51
2024-01-10T10:57:28.290Z,-4.35
2024-01-10T11:01:31.802Z,-4.22
2024-01-10T11:05:35.062Z,-4.10
2024-01-10T11:09:41.886Z,-3.92
2024-01-10T11:14:02.347Z,-3.71
2024-01-10T11:18:18.269Z,-3.61
2024-01-10T11:22:41.083Z,-3.43
2024-01-10T11:26:47.290Z,-3.32
2024-01-10T11:30:53.773Z,-3.23
2024-01-10T11:34:57.770Z,-3.15
2024-01-10T11:39:03.792Z,-3.08
2024-01-10T11:43:15.005Z,-3.03
2024-01-10T11:47:19.626Z,-2.92
2024-01-10T11:51:22.994Z,-2.88
2024-01-10T11:55:58.647Z,-2.83
2024-01-10T12:00:06.853Z,-2.73
2024-01-10T12:04:18.002Z,-2.67
2024-01-10T12:08:27.394Z,-2.57
2024-01-10T12:12:31.563Z,-2.52
2024-01-10T12:16:37.195Z,-2.44
2024-01-10T12:20:41.005Z,-2.36
2024-01-10T12:24:50.722Z,-2.27
2024-01-10T12:28:58.785Z,-2.21
2024-01-10T12:33:03.771Z,-2.14
2024-01-10T12:37:07.415Z,-2.11
2024-01-10T12:41:10.648Z,-2.05
2024-01-10T12:45:23.035Z,-1.95
2024-01-10T12:49:27.636Z,-1.91
2024-01-10T12:53:31.474Z,-1.83
2024-01-10T12:57:34.607Z,-1.79
2024-01-10T13:01:38.163Z,-1.80
2024-01-10T13:05:42.646Z,-1.69
2024-01-10T13:09:46.062Z,-1.67
2024-01-10T13:13:49.527Z,-1.59
2024-01-10T13:17:52.904Z,-1.58
2024-01-10T13:21:57.590Z,-1.55
2024-01-10T13:26:01.600Z,-1.56
2024-01-10T13:30:06.945Z,-1.54
2024-01-10T13:34:13.082Z,-1.52
2024-01-10T13:38:18.550Z,-1.52
2024-01-10T13:42:22.163Z,-1.52
2024-01-10T13:46:25.744Z,-1.54
2024-01-10T13:50:30.227Z,-1.58
2024-01-10T13:54:34.717Z,-1.56
2024-01-10T13:58:38.121Z,-1.54
2024-01-10T14:02:41.304Z,-1.52
2024-01-10T14:06:44.820Z,-1.54
2024-01-10T14:10:49.307Z,-1.56
2024-01-10T14:14:52.904Z,-1.61
2024-01-10T14:18:57.122Z,-1.66
2024-01-10T14:23:02.120Z,-1.68
2024-01-10T14:27:07.483Z,-1.72
2024-01-10T14:31:23.010Z,-1.75
2024-01-10T14:35:33.401Z,-1.77
2024-01-10T14:39:40.414Z,-1.79
2024-01-10T14:43:44.958Z,-1.84
2024-01-10T14:47:48.439Z,-1.86
2024-01-10T14:51:51.507Z,-1.93
2024-01-10T14:55:54.909Z,-1.94
2024-01-10T15:00:00.872Z,-1.98
2024-01-10T15:04:05.081Z,-2.03
2024-01-10T15:08:08.849Z,-2.04
2024-01-10T15:12:12.424Z,-2.07
2024-01-10T15:16:16.918Z,-2.13
2024-01-10T15:20:20.034Z,-2.18
2024-01-10T15:24:23.141Z,-2.21
2024-01-10T15:28:26.552Z,-2.25
2024-01-10T15:32:31.549Z,-2.28
2024-01-10T15:36:35.195Z,-2.33
2024-01-10T15:40:38.338Z,-2.35
2024-01-10T15:44:42.774Z,-2.37
2024-01-10T15:48:47.304Z,-2.41
2024-01-10T15:52:52.645Z,-2.50
2024-01-10T15:56:56.317Z,-2.48
2024-01-10T16:01:01.008Z,-2.54
2024-01-10T16:05:06.207Z,-2.59
2024-01-10T16:09:10.504Z,-2.58
2024-01-10T16:13:13.872Z,-2.60
2024-01-10T16:17:16.969Z,-2.61
2024-01-10T16:21:22.111Z,-2.64
2024-01-10T16:25:25.523Z,-2.68
2024-01-10T16:29:28.591Z,-2.73
2024-01-10T16:33:32.037Z,-2.76
2024-01-10T16:37:36.563Z,-2.78
2024-01-10T16:41:40.432Z,-2.82
2024-01-10T16:45:43.874Z,-2.85
2024-01-10T16:49:47.255Z,-2.88
2024-01-10T16:53:51.740Z,-2.94
2024-01-10T16:57:55.330Z,-2.95
2024-01-10T17:01:58.737Z,-3.01
2024-01-10T17:06:02.171Z,-3.03
2024-01-10T17:10:07.619Z,-3.05
2024-01-10T17:14:11.041Z,-3.06
2024-01-10T17:18:14.378Z,-3.04
2024-01-10T17:22:17.595Z,-3.11
2024-01-10T17:26:31.386Z,-3.14
2024-01-10T17:30:34.622Z,-3.15
2024-01-10T17:34:38.272Z,-3.18
2024-01-10T17:38:42.049Z,-3.19
2024-01-10T17:42:46.532Z,-3.22
2024-01-10T17:46:50.052Z,-3.24
2024-01-10T17:50:53.434Z,-3.25
2024-01-10T17:54:56.874Z,-3.27
2024-01-10T17:59:01.307Z,-3.25
2024-01-10T18:03:05.459Z,-3.34
2024-01-10T18:07:09.982Z,-3.40
2024-01-10T18:11:13.656Z,-3.40
2024-01-10T18:15:18.185Z,-3.45
2024-01-10T18:19:21.880Z,-3.47
2024-01-10T18:23:25.470Z,-3.48
2024-01-10T18:27:29.543Z,-3.52
2024-01-10T18:31:34.336Z,-3.53
2024-01-10T18:35:37.982Z,-3.52
2024-01-10T18:39:41.373Z,-3.45
2024-01-10T18:43:45.011Z,-3.47
2024-01-10T18:47:50.150Z,-3.49
2024-01-10T18:51:54.532Z,-3.51
2024-01-10T18:55:58.214Z,-3.51
2024-01-10T19:00:02.008Z,-3.55
2024-01-10T19:04:06.974Z,-3.59
2024-01-10T19:08:10.643Z,-3.59
2024-01-10T19:12:14.127Z,-3.60
2024-01-10T19:16:17.472Z,-3.57
2024-01-10T19:20:22.412Z,-3.59
2024-01-10T19:24:26.308Z,-3.61
2024-01-10T19:28:29.399Z,-3.61
2024-01-10T19:32:32.961Z,-3.59
2024-01-10T19:36:38.565Z,-3.59
2024-01-10T19:40:42.132Z,-3.63
2024-01-10T19:44:45.241Z,-3.63
2024-01-10T19:48:49.385Z,-3.65
2024-01-10T19:52:54.254Z,-3.64
2024-01-10T19:56:57.976Z,-3.66
2024-01-10T20:01:01.134Z,-3.69
2024-01-10T20:05:05.226Z,-3.69
2024-01-10T20:09:11.490Z,-3.72
2024-01-10T20:13:15.071Z,-3.72
2024-01-10T20:17:19.525Z,-3.75
2024-01-10T20:21:23.025Z,-3.78
2024-01-10T20:25:28.864Z,-3.81
2024-01-10T20:29:32.905Z,-3.80
2024-01-10T20:33:36.389Z,-3.79
2024-01-10T20:37:40.027Z,-3.83
2024-01-10T20:41:44.462Z,-3.85
2024-01-10T20:45:47.899Z,-3.86
2024-01-10T20:49:51.004Z,-3.85
2024-01-10T20:53:54.363Z,-3.90
2024-01-10T20:57:58.934Z,-3.94
2024-01-10T21:02:02.459Z,-3.93
2024-01-10T21:06:06.292Z,-3.96
2024-01-10T21:10:10.901Z,-4.02
2024-01-10T21:14:15.343Z,-4.04
2024-01-10T21:18:18.820Z,-4.07
2024-01-10T21:22:21.989Z,-4.13
2024-01-10T21:26:25.745Z,-4.18
2024-01-10T21:30:30.446Z,-4.22
2024-01-10T21:34:33.895Z,-4.21
2024-01-10T21:38:37.414Z,-4.22
2024-01-10T21:42:40.875Z,-4.27
2024-01-10T21:46:45.430Z,-4.27
2024-01-10T21:50:48.975Z,-4.25
2024-01-10T21:54:52.534Z,-4.24
2024-01-10T21:58:55.873Z,-4.28
2024-01-10T22:03:00.458Z,-4.32
2024-01-10T22:07:04.208Z,-4.37
2024-01-10T22:11:07.405Z,-4.35
2024-01-10T22:15:11.238Z,-4.33
2024-01-10T22:19:15.921Z,-4.33
2024-01-10T22:23:19.655Z,-4.30
2024-01-10T22:27:22.782Z,-4.32
2024-01-10T22:31:26.245Z,-4.31
2024-01-10T22:35:30.855Z,-4.31
2024-01-10T22:39:34.255Z,-4.34
2024-01-10T22:43:37.283Z,-4.37
2024-01-10T22:47:40.785Z,-4.37
2024-01-10T22:51:45.302Z,-4.40
2024-01-10T22:55:48.529Z,-4.41
2024-01-10T22:59:52.217Z,-4.42
2024-01-10T23:03:55.582Z,-4.42
2024-01-10T23:08:00.453Z,-4.41
2024-01-10T23:12:04.149Z,-4.42
2024-01-10T23:16:07.707Z,-4.42
2024-01-10T23:20:12.101Z,-4.44
2024-01-10T23:24:17.127Z,-4.49
2024-01-10T23:28:20.645Z,-4.51
2024-01-10T23:32:24.981Z,-4.55
2024-01-10T23:36:28.792Z,-4.61
2024-01-10T23:40:33.500Z,-4.67
2024-01-10T23:44:36.917Z,-4.66
2024-01-10T23:48:40.076Z,-4.67
2024-01-10T23:52:43.586Z,-4.72
2024-01-10T23:56:48.565Z,-4.71
